createdAt,value
2023-04-30T00:01:52.528Z,39.10
2023-04-30T00:04:20.679Z,39.37
2023-04-30T00:06:48.705Z,39.30
2023-04-30T00:09:16.768Z,39.00
2023-04-30T00:11:46.568Z,40.30
2023-04-30T00:14:14.473Z,40.53
2023-04-30T00:16:42.444Z,39.20
2023-04-30T00:19:10.899Z,39.90
2023-04-30T00:21:38.910Z,38.40
2023-04-30T00:24:07.611Z,39.93
2023-04-30T00:26:35.677Z,39.20
2023-04-30T00:29:04.952Z,39.10
2023-04-30T00:31:33.031Z,39.13
2023-04-30T00:34:01.130Z,39.70
2023-04-30T00:36:29.242Z,39.10
2023-04-30T00:38:57.106Z,39.47
2023-04-30T00:41:26.829Z,38.63
2023-04-30T00:43:54.725Z,39.30
2023-04-30T00:46:24.270Z,39.63
2023-04-30T00:48:52.310Z,39.40
2023-04-30T00:51:20.451Z,39.20
2023-04-30T00:53:48.441Z,40.00
2023-04-30T00:56:17.330Z,40.60
2023-04-30T00:58:45.213Z,39.80
2023-04-30T01:01:13.662Z,40.77
2023-04-30T01:03:44.549Z,40.10
2023-04-30T01:06:12.692Z,40.40
2023-04-30T01:08:40.860Z,39.50
2023-04-30T01:11:18.397Z,39.90
2023-04-30T01:13:59.358Z,39.93
2023-04-30T01:16:29.680Z,39.53
2023-04-30T01:19:03.621Z,39.80
2023-04-30T01:21:33.684Z,40.20
2023-04-30T01:24:39.027Z,39.97
2023-04-30T01:27:16.674Z,39.47
2023-04-30T01:29:46.226Z,40.80
2023-04-30T01:32:14.598Z,41.10
2023-04-30T01:34:42.738Z,40.20
2023-04-30T01:37:21.911Z,40.13
2023-04-30T01:40:04.482Z,40.63
2023-04-30T01:42:42.665Z,40.47
2023-04-30T01:45:28.334Z,40.90
2023-04-30T01:48:04.540Z,39.20
2023-04-30T01:50:40.272Z,40.33
2023-04-30T01:53:12.086Z,41.00
2023-04-30T01:55:45.201Z,39.20
2023-04-30T01:58:16.268Z,39.73
2023-04-30T02:00:46.208Z,39.27
2023-04-30T02:03:14.325Z,39.43
2023-04-30T02:05:42.402Z,39.07
2023-04-30T02:08:10.322Z,39.00
2023-04-30T02:10:38.456Z,39.10
2023-04-30T02:13:06.500Z,39.00
2023-04-30T02:15:34.469Z,39.60
2023-04-30T02:18:03.958Z,38.97
2023-04-30T02:20:31.985Z,38.57
2023-04-30T02:23:00.065Z,38.90
2023-04-30T02:25:27.994Z,38.43
2023-04-30T02:27:55.853Z,38.38
2023-04-30T02:30:23.825Z,38.80
2023-04-30T02:32:51.741Z,39.40
2023-04-30T02:35:21.261Z,39.17
2023-04-30T02:37:49.326Z,39.03
2023-04-30T02:40:17.617Z,39.93
2023-04-30T02:42:45.537Z,38.80
2023-04-30T02:45:13.468Z,39.13
2023-04-30T02:47:41.678Z,39.10
2023-04-30T02:50:10.598Z,40.33
2023-04-30T02:52:39.896Z,39.30
2023-04-30T02:55:08.889Z,39.07
2023-04-30T02:57:36.924Z,39.53
2023-04-30T03:00:06.160Z,39.37
2023-04-30T03:02:34.430Z,40.07
2023-04-30T03:05:02.668Z,39.30
2023-04-30T03:07:30.828Z,38.90
2023-04-30T03:10:00.436Z,39.20
2023-04-30T03:12:28.432Z,38.33
2023-04-30T03:14:56.359Z,39.43
2023-04-30T03:17:24.984Z,39.10
2023-04-30T03:19:53.072Z,39.40
2023-04-30T03:22:23.630Z,39.27
2023-04-30T03:24:51.705Z,39.10
2023-04-30T03:27:21.258Z,38.63
2023-04-30T03:29:49.269Z,39.63
2023-04-30T03:32:17.612Z,38.63
2023-04-30T03:34:46.154Z,38.80
2023-04-30T03:37:14.459Z,39.60
2023-04-30T03:39:42.470Z,40.10
2023-04-30T03:42:10.656Z,39.13
2023-04-30T03:44:40.084Z,39.37
2023-04-30T03:47:08.413Z,39.10
2023-04-30T03:49:36.273Z,38.33
2023-04-30T03:52:05.686Z,38.97
2023-04-30T03:54:34.399Z,39.10
2023-04-30T03:57:04.588Z,38.40
2023-04-30T03:59:33.097Z,38.23
2023-04-30T04:02:02.990Z,38.90
2023-04-30T04:04:32.675Z,38.17
2023-04-30T04:07:01.341Z,38.43
2023-04-30T04:09:29.188Z,38.70
2023-04-30T04:11:58.085Z,38.30
2023-04-30T04:14:26.034Z,37.90
2023-04-30T04:16:54.087Z,37.77
2023-04-30T04:19:23.651Z,37.80
2023-04-30T04:21:51.567Z,37.80
2023-04-30T04:24:19.777Z,37.57
2023-04-30T04:26:48.196Z,37.40
2023-04-30T04:29:16.124Z,39.00
2023-04-30T04:31:44.370Z,37.57
2023-04-30T04:34:12.614Z,37.80
2023-04-30T04:36:41.883Z,38.60
2023-04-30T04:39:10.176Z,38.10
2023-04-30T04:41:38.146Z,38.00
2023-04-30T04:44:06.552Z,37.20
2023-04-30T04:46:38.640Z,37.30
2023-04-30T04:49:06.931Z,38.00
2023-04-30T04:51:35.147Z,38.50
2023-04-30T04:54:05.010Z,37.13
2023-04-30T04:56:33.200Z,37.00
2023-04-30T04:59:01.522Z,38.67
2023-04-30T05:01:29.658Z,36.00
2023-04-30T05:03:57.898Z,36.90
2023-04-30T05:06:27.042Z,36.50
2023-04-30T05:08:55.021Z,36.30
2023-04-30T05:11:24.516Z,35.67
2023-04-30T05:13:52.394Z,36.40
2023-04-30T05:16:20.438Z,35.97
2023-04-30T05:18:48.444Z,35.80
2023-04-30T05:21:16.564Z,36.60
2023-04-30T05:23:46.145Z,36.70
2023-04-30T05:26:14.430Z,36.30
2023-04-30T05:28:43.903Z,36.10
2023-04-30T05:31:12.356Z,36.07
2023-04-30T05:33:40.998Z,35.63
2023-04-30T05:36:09.146Z,36.50
2023-04-30T05:38:37.154Z,36.40
2023-04-30T05:41:05.668Z,36.57
2023-04-30T05:43:33.652Z,36.03
2023-04-30T05:46:03.713Z,36.63
2023-04-30T05:48:32.013Z,35.73
2023-04-30T05:51:00.286Z,36.17
2023-04-30T05:53:28.649Z,36.80
2023-04-30T05:55:56.799Z,36.87
2023-04-30T05:58:24.841Z,37.33
2023-04-30T06:00:53.334Z,37.50
2023-04-30T06:03:22.967Z,38.50
2023-04-30T06:05:51.115Z,37.60
2023-04-30T06:08:19.206Z,37.53
2023-04-30T06:10:47.160Z,38.03
2023-04-30T06:13:15.378Z,38.50
2023-04-30T06:15:43.558Z,39.40
2023-04-30T06:18:14.403Z,37.90
2023-04-30T06:20:43.817Z,38.80
2023-04-30T06:23:11.980Z,38.07
2023-04-30T06:25:40.733Z,39.80
2023-04-30T06:28:12.308Z,38.50
2023-04-30T06:30:40.366Z,39.50
2023-04-30T06:33:08.709Z,38.80
2023-04-30T06:35:36.969Z,40.50
2023-04-30T06:38:06.781Z,39.70
2023-04-30T06:40:39.634Z,39.13
2023-04-30T06:43:07.862Z,39.40
2023-04-30T06:45:36.751Z,38.87
2023-04-30T06:48:08.057Z,39.30
2023-04-30T06:50:45.059Z,39.43
2023-04-30T06:53:15.293Z,39.27
2023-04-30T06:55:44.296Z,39.40
2023-04-30T06:58:14.259Z,39.70
2023-04-30T07:00:45.053Z,39.17
2023-04-30T07:03:15.741Z,39.60
2023-04-30T07:05:44.002Z,39.50
2023-04-30T07:08:12.988Z,39.80
2023-04-30T07:10:42.199Z,39.40
2023-04-30T07:13:10.121Z,39.40
2023-04-30T07:15:38.846Z,39.83
2023-04-30T07:18:06.728Z,39.50
2023-04-30T07:20:34.990Z,40.00
2023-04-30T07:23:02.806Z,39.90
2023-04-30T07:25:30.746Z,39.73
2023-04-30T07:28:00.274Z,39.93
2023-04-30T07:30:28.199Z,40.10
2023-04-30T07:32:56.409Z,39.53
2023-04-30T07:35:24.285Z,41.65
2023-04-30T07:37:52.165Z,40.70
2023-04-30T07:40:29.155Z,41.60
2023-04-30T07:43:04.965Z,40.60
2023-04-30T07:45:34.937Z,39.90
2023-04-30T07:48:02.899Z,40.10
2023-04-30T07:50:34.179Z,40.53
2023-04-30T07:53:03.321Z,39.90
2023-04-30T07:55:31.355Z,39.87
2023-04-30T07:57:59.782Z,40.40
2023-04-30T08:00:31.233Z,40.27
2023-04-30T08:03:00.770Z,40.70
2023-04-30T08:05:28.885Z,40.07
2023-04-30T08:07:57.017Z,40.60
2023-04-30T08:10:25.319Z,40.20
2023-04-30T08:12:54.163Z,41.57
2023-04-30T08:15:22.411Z,41.67
2023-04-30T08:17:52.779Z,40.60
2023-04-30T08:20:23.706Z,40.73
2023-04-30T08:22:52.093Z,41.78
2023-04-30T08:25:20.210Z,41.33
2023-04-30T08:27:48.199Z,41.17
2023-04-30T08:30:16.178Z,40.90
2023-04-30T08:32:44.193Z,40.93
2023-04-30T08:35:13.552Z,40.30
2023-04-30T08:37:41.406Z,42.67
2023-04-30T08:40:11.965Z,44.05
2023-04-30T08:42:45.582Z,42.17
2023-04-30T08:45:14.516Z,41.20
2023-04-30T08:47:43.018Z,42.38
2023-04-30T08:50:11.286Z,43.13
2023-04-30T08:52:41.272Z,42.17
2023-04-30T08:55:11.191Z,41.17
2023-04-30T08:57:39.466Z,41.43
2023-04-30T09:00:09.669Z,41.10
2023-04-30T09:02:41.361Z,41.58
2023-04-30T09:05:12.646Z,41.80
2023-04-30T09:07:48.982Z,42.50
2023-04-30T09:10:21.615Z,41.00
2023-04-30T09:13:00.174Z,41.73
2023-04-30T09:15:28.239Z,42.03
2023-04-30T09:18:14.353Z,42.50
2023-04-30T09:20:56.736Z,41.70
2023-04-30T09:23:26.647Z,43.17
2023-04-30T09:25:54.556Z,42.50
2023-04-30T09:28:25.401Z,42.00
2023-04-30T09:30:53.951Z,42.40
2023-04-30T09:33:21.806Z,42.30
2023-04-30T09:35:49.887Z,42.20
2023-04-30T09:38:30.160Z,41.73
2023-04-30T09:41:00.752Z,44.20
2023-04-30T09:43:28.966Z,42.50
2023-04-30T09:45:59.650Z,42.47
2023-04-30T09:48:28.713Z,41.80
2023-04-30T09:50:56.735Z,42.67
2023-04-30T09:53:24.543Z,42.13
2023-04-30T09:55:54.948Z,42.53
2023-04-30T09:58:27.094Z,43.78
2023-04-30T10:00:57.093Z,42.90
2023-04-30T10:03:25.479Z,42.77
2023-04-30T10:05:54.514Z,42.30
2023-04-30T10:08:27.997Z,43.70
2023-04-30T10:11:01.268Z,42.72
2023-04-30T10:13:34.403Z,43.85
2023-04-30T10:16:09.229Z,43.17
2023-04-30T10:18:41.038Z,45.15
2023-04-30T10:21:14.133Z,43.20
2023-04-30T10:23:43.900Z,45.17
2023-04-30T10:26:13.599Z,45.20
2023-04-30T10:28:42.045Z,45.92
2023-04-30T10:31:11.407Z,45.70
2023-04-30T10:33:49.834Z,43.50
2023-04-30T10:36:27.746Z,43.60
2023-04-30T10:38:56.144Z,46.28
2023-04-30T10:41:27.917Z,46.80
2023-04-30T10:44:01.197Z,46.90
2023-04-30T10:46:29.963Z,47.00
2023-04-30T10:48:57.896Z,46.63
2023-04-30T10:51:45.168Z,44.93
2023-04-30T10:54:14.601Z,43.70
2023-04-30T10:56:46.885Z,45.40
2023-04-30T10:59:15.446Z,44.50
2023-04-30T11:02:07.202Z,45.70
2023-04-30T11:04:35.051Z,45.70
2023-04-30T11:07:08.277Z,45.00
2023-04-30T11:09:38.556Z,46.03
2023-04-30T11:12:16.452Z,47.90
2023-04-30T11:14:46.076Z,47.03
2023-04-30T11:17:23.022Z,48.40
2023-04-30T11:19:52.788Z,48.28
2023-04-30T11:22:24.022Z,47.22
2023-04-30T11:24:53.467Z,47.90
2023-04-30T11:27:24.277Z,50.00
2023-04-30T11:29:53.502Z,51.10
2023-04-30T11:32:23.619Z,47.85
2023-04-30T11:34:52.011Z,48.40
2023-04-30T11:37:24.769Z,48.05
2023-04-30T11:39:53.301Z,47.95
2023-04-30T11:42:22.697Z,47.30
2023-04-30T11:44:50.573Z,46.83
2023-04-30T11:47:18.404Z,47.08
2023-04-30T11:49:46.471Z,48.40
2023-04-30T11:52:14.529Z,48.30
2023-04-30T11:54:42.435Z,48.10
2023-04-30T11:57:10.338Z,45.83
2023-04-30T11:59:43.598Z,47.28
2023-04-30T12:02:15.354Z,46.22
2023-04-30T12:04:44.598Z,47.13
2023-04-30T12:07:13.047Z,46.58
2023-04-30T12:09:53.848Z,47.15
2023-04-30T12:12:29.005Z,48.30
2023-04-30T12:14:58.443Z,48.10
2023-04-30T12:17:33.526Z,51.50
2023-04-30T12:20:01.569Z,49.60
2023-04-30T12:22:30.002Z,50.80
2023-04-30T13:15:03.923Z,44.38
2023-04-30T13:17:31.913Z,44.50
2023-04-30T13:19:59.924Z,45.17
2023-04-30T13:22:29.623Z,44.53
2023-04-30T13:25:01.451Z,48.30
2023-04-30T13:27:29.542Z,46.13
2023-04-30T13:29:57.640Z,45.47
2023-04-30T13:32:25.761Z,47.72
2023-04-30T13:34:55.052Z,46.23
2023-04-30T13:37:23.110Z,44.83
2023-04-30T13:39:51.122Z,47.63
2023-04-30T13:42:20.387Z,44.40
2023-04-30T13:44:49.944Z,44.00
2023-04-30T13:47:17.968Z,44.10
2023-04-30T13:49:45.923Z,43.50
2023-04-30T13:52:14.125Z,43.63
2023-04-30T13:54:42.076Z,44.87
2023-04-30T13:57:10.194Z,44.93
2023-04-30T13:59:39.519Z,44.77
2023-04-30T14:02:08.428Z,45.40
2023-04-30T14:04:36.372Z,44.27
2023-04-30T14:07:04.942Z,44.53
2023-04-30T14:09:32.890Z,44.77
2023-04-30T14:12:00.794Z,43.67
2023-04-30T14:14:28.894Z,43.93
2023-04-30T14:16:58.427Z,43.40
2023-04-30T14:19:26.790Z,43.93
2023-04-30T14:21:55.514Z,43.33
2023-04-30T14:24:23.748Z,44.03
2023-04-30T14:26:51.652Z,44.17
2023-04-30T14:29:21.606Z,44.35
2023-04-30T14:31:49.876Z,43.23
2023-04-30T14:34:19.689Z,44.70
2023-04-30T14:36:48.074Z,45.77
2023-04-30T14:39:16.024Z,44.63
2023-04-30T14:41:44.151Z,43.90
2023-04-30T14:44:12.033Z,45.10
2023-04-30T14:46:40.778Z,44.93
2023-04-30T14:49:08.705Z,44.77
2023-04-30T14:51:37.984Z,45.10
2023-04-30T14:54:06.120Z,45.83
2023-04-30T14:56:34.189Z,44.77
2023-04-30T14:59:02.150Z,45.20
2023-04-30T15:01:30.502Z,46.17
2023-04-30T15:03:58.775Z,46.50
2023-04-30T15:06:26.878Z,44.07
2023-04-30T15:08:56.570Z,44.40
2023-04-30T15:11:25.054Z,46.50
2023-04-30T15:13:54.538Z,45.37
2023-04-30T15:16:22.911Z,44.40
2023-04-30T15:18:50.903Z,45.15
2023-04-30T15:21:18.840Z,43.83
2023-04-30T15:23:46.914Z,43.87
2023-04-30T15:26:16.279Z,44.23
2023-04-30T15:28:44.300Z,44.10
2023-04-30T15:31:12.247Z,46.37
2023-04-30T15:33:42.095Z,44.90
2023-04-30T15:36:11.418Z,45.47
2023-04-30T15:38:40.276Z,44.87
2023-04-30T15:41:08.207Z,44.80
2023-04-30T15:43:37.482Z,44.23
2023-04-30T15:46:05.612Z,44.80
2023-04-30T15:48:33.577Z,45.33
2023-04-30T15:51:01.688Z,46.27
2023-04-30T15:53:29.616Z,44.63
2023-04-30T15:55:58.142Z,46.03
2023-04-30T15:58:26.116Z,44.60
2023-04-30T16:00:55.529Z,45.70
2023-04-30T16:03:23.566Z,45.60
2023-04-30T16:05:51.778Z,45.73
2023-04-30T16:08:19.875Z,46.13
2023-04-30T16:10:48.081Z,45.23
2023-04-30T16:13:16.163Z,45.87
2023-04-30T16:15:44.065Z,45.87
2023-04-30T16:18:13.469Z,46.20
2023-04-30T16:20:43.108Z,44.87
2023-04-30T16:23:11.329Z,46.90
2023-04-30T16:25:39.283Z,45.00
2023-04-30T16:28:07.212Z,45.97
2023-04-30T16:30:35.816Z,45.60
2023-04-30T16:33:04.086Z,45.77
2023-04-30T16:35:33.363Z,44.63
2023-04-30T16:38:02.536Z,45.20
2023-04-30T16:40:30.861Z,44.90
2023-04-30T16:43:00.578Z,44.83
2023-04-30T16:45:30.198Z,44.37
2023-04-30T16:47:58.315Z,44.60
2023-04-30T16:50:27.142Z,44.77
2023-04-30T16:52:56.517Z,44.20
2023-04-30T16:55:25.074Z,44.63
2023-04-30T16:57:53.848Z,44.70
2023-04-30T17:00:21.986Z,44.50
2023-04-30T17:02:50.287Z,44.83
2023-04-30T17:05:18.262Z,44.43
2023-04-30T17:07:46.301Z,44.53
2023-04-30T17:10:17.292Z,45.57
2023-04-30T17:12:45.317Z,45.63
2023-04-30T17:15:13.333Z,47.17
2023-04-30T17:17:41.524Z,45.50
2023-04-30T17:20:10.237Z,46.93
2023-04-30T17:22:38.279Z,44.63
2023-04-30T17:25:06.745Z,45.33
2023-04-30T17:27:36.039Z,44.47
2023-04-30T17:30:04.915Z,45.20
2023-04-30T17:32:32.854Z,44.03
2023-04-30T17:35:02.650Z,44.50
2023-04-30T17:37:30.540Z,44.67
2023-04-30T17:39:58.720Z,44.40
2023-04-30T17:42:26.819Z,44.23
2023-04-30T17:44:56.084Z,44.93
2023-04-30T17:47:24.136Z,43.80
2023-04-30T17:49:52.071Z,46.47
2023-04-30T17:52:20.128Z,44.10
2023-04-30T17:54:48.018Z,43.90
2023-04-30T17:57:15.887Z,44.33
2023-04-30T17:59:43.750Z,44.67
2023-04-30T18:02:13.085Z,44.13
2023-04-30T18:04:41.085Z,43.90
2023-04-30T18:07:09.340Z,44.33
2023-04-30T18:09:37.260Z,44.43
2023-04-30T18:12:05.252Z,43.90
2023-04-30T18:14:33.154Z,43.53
2023-04-30T18:17:01.050Z,44.10
2023-04-30T18:19:30.370Z,43.70
2023-04-30T18:21:58.264Z,43.13
2023-04-30T18:24:27.779Z,43.80
2023-04-30T18:26:55.823Z,43.87
2023-04-30T18:29:24.621Z,43.60
2023-04-30T18:31:52.909Z,43.60
2023-04-30T18:34:21.214Z,43.00
2023-04-30T18:36:50.701Z,42.17
2023-04-30T18:39:18.588Z,44.27
2023-04-30T18:41:46.500Z,43.30
2023-04-30T18:44:14.450Z,43.30
2023-04-30T18:46:42.688Z,42.77
2023-04-30T18:49:10.577Z,43.37
2023-04-30T18:51:38.458Z,44.60
2023-04-30T18:54:07.719Z,43.33
2023-04-30T18:56:36.865Z,43.73
2023-04-30T18:59:04.839Z,43.37
2023-04-30T19:01:32.809Z,42.50
2023-04-30T19:04:01.579Z,42.90
2023-04-30T19:06:30.747Z,43.40
2023-04-30T19:08:59.637Z,43.60
2023-04-30T19:11:29.036Z,42.87
2023-04-30T19:13:58.444Z,41.90
2023-04-30T19:16:26.422Z,41.63
2023-04-30T19:18:54.425Z,41.60
2023-04-30T19:21:23.427Z,41.60
2023-04-30T19:23:51.322Z,41.90
2023-04-30T19:26:19.480Z,42.20
2023-04-30T19:28:48.706Z,41.33
2023-04-30T19:31:16.744Z,41.30
2023-04-30T19:33:44.836Z,41.57
2023-04-30T19:36:13.302Z,41.10
2023-04-30T19:38:41.372Z,41.67
2023-04-30T19:41:09.297Z,41.20
2023-04-30T19:43:37.272Z,41.50
2023-04-30T19:46:07.351Z,42.27
2023-04-30T19:48:35.449Z,41.80
2023-04-30T19:51:06.646Z,41.70
2023-04-30T19:53:34.610Z,41.77
2023-04-30T19:56:02.481Z,41.40
2023-04-30T19:58:30.464Z,41.17
2023-04-30T20:00:58.359Z,41.23
2023-04-30T20:03:28.390Z,41.30
2023-04-30T20:05:56.503Z,41.20
2023-04-30T20:08:24.630Z,41.30
2023-04-30T20:10:52.535Z,41.57
2023-04-30T20:13:21.026Z,41.47
2023-04-30T20:15:49.136Z,41.40
2023-04-30T20:18:17.048Z,42.10
2023-04-30T20:20:46.326Z,41.73
2023-04-30T20:23:16.070Z,41.47
2023-04-30T20:25:44.816Z,41.53
2023-04-30T20:28:13.255Z,41.73
2023-04-30T20:30:42.804Z,41.57
2023-04-30T20:33:10.892Z,41.40
2023-04-30T20:35:41.434Z,41.47
2023-04-30T20:38:10.766Z,42.27
2023-04-30T20:40:40.257Z,41.73
2023-04-30T20:43:08.330Z,40.80
2023-04-30T20:45:36.593Z,41.47
2023-04-30T20:48:05.587Z,41.67
2023-04-30T20:50:34.110Z,40.93
2023-04-30T20:53:02.049Z,41.80
2023-04-30T20:55:32.429Z,41.13
2023-04-30T20:58:00.374Z,42.40
2023-04-30T21:00:28.262Z,44.17
2023-04-30T21:02:56.316Z,42.70
2023-04-30T21:05:24.406Z,43.20
2023-04-30T21:07:52.611Z,43.60
2023-04-30T21:10:20.576Z,42.57
2023-04-30T21:12:49.869Z,42.10
2023-04-30T21:15:17.989Z,42.27
2023-04-30T21:17:45.955Z,42.00
2023-04-30T21:20:14.385Z,43.03
2023-04-30T21:22:42.282Z,42.17
2023-04-30T21:25:12.143Z,42.70
2023-04-30T21:27:40.405Z,42.90
2023-04-30T21:30:10.770Z,42.20
2023-04-30T21:32:39.304Z,41.70
2023-04-30T21:35:08.061Z,42.63
2023-04-30T21:37:36.252Z,42.27
2023-04-30T21:40:04.700Z,43.63
2023-04-30T21:42:33.699Z,41.63
2023-04-30T21:45:01.625Z,40.60
2023-04-30T21:47:31.631Z,42.57
2023-04-30T21:49:59.624Z,42.60
2023-04-30T21:52:27.609Z,40.33
2023-04-30T21:54:55.755Z,40.77
2023-04-30T21:57:24.053Z,41.03
2023-04-30T21:59:51.893Z,45.63
2023-04-30T22:02:24.144Z,40.63
2023-04-30T22:04:55.321Z,41.70
2023-04-30T22:07:23.927Z,41.67
2023-04-30T22:09:52.679Z,44.60
2023-04-30T22:12:21.535Z,40.87
2023-04-30T22:14:53.080Z,42.20
2023-04-30T22:17:21.594Z,40.40
2023-04-30T22:19:49.646Z,45.90
2023-04-30T22:22:18.855Z,41.97
2023-04-30T22:24:46.798Z,41.37
2023-04-30T22:27:14.849Z,41.53
2023-04-30T22:29:43.732Z,43.50
2023-04-30T22:32:12.217Z,41.23
2023-04-30T22:34:41.738Z,40.57
2023-04-30T22:37:11.152Z,41.83
2023-04-30T22:39:40.791Z,42.60
2023-04-30T22:42:10.156Z,41.67
2023-04-30T22:44:38.689Z,41.60
2023-04-30T22:47:06.855Z,40.73
2023-04-30T22:49:37.070Z,42.90
2023-04-30T22:52:05.012Z,42.43
2023-04-30T22:54:32.950Z,41.43
2023-04-30T22:57:03.003Z,42.23
2023-04-30T22:59:30.883Z,41.43
2023-04-30T23:01:58.769Z,41.47
2023-04-30T23:04:26.995Z,41.20
2023-04-30T23:06:55.018Z,40.37
2023-04-30T23:09:22.911Z,40.43
2023-04-30T23:11:50.974Z,40.10
2023-04-30T23:14:20.207Z,40.67
2023-04-30T23:16:48.127Z,40.53
2023-04-30T23:19:16.005Z,41.47
2023-04-30T23:21:43.891Z,41.03
2023-04-30T23:24:11.760Z,41.10
2023-04-30T23:26:39.996Z,40.63
2023-04-30T23:29:07.857Z,41.50
2023-04-30T23:31:37.611Z,40.37
2023-04-30T23:34:05.730Z,41.70
2023-04-30T23:36:33.782Z,41.00
2023-04-30T23:39:01.641Z,41.43
2023-04-30T23:41:29.515Z,41.30
2023-04-30T23:43:57.399Z,41.33
2023-04-30T23:46:25.338Z,41.80
2023-04-30T23:48:54.590Z,41.23
2023-04-30T23:51:22.592Z,41.63
2023-04-30T23:53:50.519Z,40.60
2023-04-30T23:56:18.416Z,42.50
2023-04-30T23:58:46.357Z,41.27
